Participated 1 time
in 1972
Gerard Briend, France
Tour de France 2026 starts from Barcelona, Spain in

Stats and Facts from
Tour de France.

2026   2025   2024   2023  2022  2021  2020  2019   2018  2017   2016   2015  2014  2013   2012   2011  2010   2009   2008   2007   2006   2005   2004   2003   2002   2001   2000   1999   1998   1997  1996   1995   1994   1993   1992  1991   1990   1989   1988   1987   1986   1985   1984   1983  1982  1981   1980   1979  1978  1977   1976  1975  1974  1973   1972   1971   1970  1969   1968   1967   1966   1965  1964  1963   1962   1961   1960   1959   1958   1957  1956   1955   1954   1953   1952  1951  1950  1949   1948  1947  1939   1938   1937   1936   1935   1934   1933  1932   1931   1930  1929   1928   1927   1926  1925  1924  1923   1922   1921   1920   1919  1914   1913   1912   1911   1910  1909   1908   1907   1906  1905  1904   1903 

Tourstats
Sitemap

After stage 21 - 2025:
 16451 starters.
  5463 different riders.
  689 teams.
  2398 stages.
  470 restdays.
  466506.50 km.
  5925 abandoned riders.

Click map for 2006 route.
Facts from Tour de France 2006
  |   Stages.  |   Stage winners.  |   Days in jerseys.  |   Teams.  |   All riders.  |   All riders by age.  |   All riders from.  |  

  |   Rookies.  |   Withdrawls.  |   Average speed.  |   GC.  |   Polka  |   Green  |   White  |   Summits. (In tour)  |   Miscellaneous.  |  

Stage 11 on July 13th. 2006
Pick a stage:  Pro  1  2  3  4  5  6  7  8  9  10  11  12  13  14  15  16  17  18  19  20  

After stage 11:    Cyril Dessel  
  TarbesVal-d´Aran-Pla-de-Beret | Dist: 206.50km. | Winner: Denis Menchov

Podium
HC  Col du Tourmalet David De La Fuenteafter75.00 km.

1  Col d'Aspin Fabian Wegmannafter105.00 km.

1  Col de Peyresourde David De La Fuenteafter136.00 km.

1  Col du Portillon David De La Fuenteafter161.00 km.

1  Pla de Beret Denis Menchovafter204.50 km.


Average speed for all riders in stage:  31,333 km./hr.

1
 Denis Menchov  Rabobank06h 06' 25"=33,814  km/h

2
 Levi Leipheimer  Gerolsteiner06h 06' 25"=33,814  km/h

3
 Floyd Landis  Phonak Hearing Systems06h 06' 25"=33,814  km/h

4  Cadel Evans  Davitamon-Lotto06h 06' 42"+  00:00:17 =33,788  km/h

5  Carlos Sastre  CSC06h 06' 42"+  00:00:17 =33,788  km/h

6  Michael Boogerd  Rabobank06h 07' 29"+  00:01:04 =33,716  km/h

7  Haimar  Zubeldía  Euskaltel-Euskadi06h 07' 56"+  00:01:31 =33,675  km/h

8  Fränk Schleck  CSC06h 07' 56"+  00:01:31 =33,675  km/h

9  Andréas  Klöden  T-Mobile06h 07' 56"+  00:01:31 =33,675  km/h

10  Christophe Moreau  AG2R-Decathlon06h 08' 54"+  00:02:29 =33,586  km/h

11  Georg Totschnig  Gerolsteiner06h 09' 31"+  00:03:06 =33,530  km/h

12  Michael Rogers  T-Mobile06h 09' 31"+  00:03:06 =33,530  km/h

13  Markus Fothen  Gerolsteiner06h 09' 31"+  00:03:06 =33,530  km/h

14  Iván Parra  Cofidis Credit Par Telephone06h 09' 31"+  00:03:06 =33,530  km/h

15  José Azevedo  Discovery Channel06h 10' 35"+  00:04:10 =33,434  km/h

16  Gilberto Simoni  Saunier Duval-Prodir06h 10' 35"+  00:04:10 =33,434  km/h

17  David Arroyo  Illes Balears-Caisse d Epargne06h 10' 35"+  00:04:10 =33,434  km/h

18  Cyril Dessel  AG2R-Decathlon06h 11' 10"+  00:04:45 =33,381  km/h

19  Pietro Caucchioli  Credit Agricole06h 11' 10"+  00:04:45 =33,381  km/h

20  Tadej Valjavec  Lampre-Fondital06h 11' 10"+  00:04:45 =33,381  km/h

21  Patrik Sinkewitz  T-Mobile06h 11' 10"+  00:04:45 =33,381  km/h

22  Axel Merckx  Phonak Hearing Systems06h 11' 10"+  00:04:45 =33,381  km/h

23  Juan Miguel Mercado  Agritubel06h 12' 01"+  00:05:36 =33,305  km/h

24  Vladimir Karpets  Illes Balears-Caisse d Epargne06h 12' 13"+  00:05:48 =33,287  km/h

25  Iñigo Landaluze  Euskaltel-Euskadi06h 12' 13"+  00:05:48 =33,287  km/h

26  Yaroslav Popovych  Discovery Channel06h 12' 50"+  00:06:25 =33,232  km/h

27  Benoit Salmon  Agritubel06h 13' 30"+  00:07:05 =33,173  km/h

28  Rubén Lobato  Saunier Duval-Prodir06h 13' 47"+  00:07:22 =33,148  km/h

29  Christophe Rinero  Saunier Duval-Prodir06h 14' 17"+  00:07:52 =33,103  km/h

30  Christophe Brandt  Davitamon-Lotto06h 15' 10"+  00:08:45 =33,025  km/h

31  Marzio Bruseghin  Lampre-Fondital06h 16' 28"+  00:10:03 =32,911  km/h

32  Francisco Javier Vila  Lampre-Fondital06h 16' 28"+  00:10:03 =32,911  km/h

33  Damiano Cunego  Lampre-Fondital06h 16' 28"+  00:10:03 =32,911  km/h

34  Sylvain Calzati  AG2R-Decathlon06h 16' 28"+  00:10:03 =32,911  km/h

35  Christian Vandevelde  CSC06h 17' 33"+  00:11:08 =32,817  km/h

36  Michael Rasmussen  Rabobank06h 17' 33"+  00:11:08 =32,817  km/h

37  Matthieu Sprick  Bouygues Telecom06h 20' 23"+  00:13:58 =32,572  km/h

38  Pierrick  Fédrigo  Bouygues Telecom06h 20' 23"+  00:13:58 =32,572  km/h

39  Mirko Celestino  Milram06h 20' 23"+  00:13:58 =32,572  km/h

40  David De La Fuente  Saunier Duval-Prodir06h 20' 27"+  00:14:02 =32,567  km/h

41  Jose Luis Arrieta  AG2R-Decathlon06h 21' 48"+  00:15:23 =32,452  km/h

42  Fabian Wegmann  Gerolsteiner06h 22' 56"+  00:16:31 =32,356  km/h

43  Xabier Zandio  Illes Balears-Caisse d Epargne06h 22' 56"+  00:16:31 =32,356  km/h

44  Laurent Lefèvre  Bouygues Telecom06h 27' 48"+  00:21:23 =31,949  km/h

45  Alexandre Botcharov  Credit Agricole06h 27' 48"+  00:21:23 =31,949  km/h

46  George Hincapie  Discovery Channel06h 27' 48"+  00:21:23 =31,949  km/h

47  Stéphane Goubert  AG2R-Decathlon06h 28' 56"+  00:22:31 =31,856  km/h

48  David Moncoutié  Cofidis Credit Par Telephone06h 29' 29"+  00:23:04 =31,811  km/h

49  Giuseppe Guerini  T-Mobile06h 29' 29"+  00:23:04 =31,811  km/h

50  Paolo Savoldelli  Discovery Channel06h 29' 29"+  00:23:04 =31,811  km/h

51  Carlos Da Cruz  Francaise Des Jeux06h 29' 29"+  00:23:04 =31,811  km/h

52  Patrice Halgand  Credit Agricole06h 30' 58"+  00:24:33 =31,691  km/h

53  Miguel Angel Martín  Phonak Hearing Systems06h 32' 51"+  00:26:26 =31,539  km/h

54  Óscar Pereiro  Illes Balears-Caisse d Epargne06h 32' 51"+  00:26:26 =31,539  km/h

55  José Ángel Gomez  Saunier Duval-Prodir06h 32' 51"+  00:26:26 =31,539  km/h

56  Simon Gerrans  AG2R-Decathlon06h 33' 54"+  00:27:29 =31,455  km/h

57  Cristian Moreni  Cofidis Credit Par Telephone06h 34' 10"+  00:27:45 =31,433  km/h

58  Koos Moerenhout  Phonak Hearing Systems06h 34' 10"+  00:27:45 =31,433  km/h

59  Stefano Garzelli  Liquigas06h 34' 10"+  00:27:45 =31,433  km/h

60  Juan Antonio Flecha  Rabobank06h 34' 10"+  00:27:45 =31,433  km/h

61  Moisés Dueñas  Agritubel06h 34' 10"+  00:27:45 =31,433  km/h

62  Matthias Kessler  T-Mobile06h 34' 10"+  00:27:45 =31,433  km/h

63  Iker Camaño  Euskaltel-Euskadi06h 34' 10"+  00:27:45 =31,433  km/h

64  Egoi Martínez  Discovery Channel06h 34' 10"+  00:27:45 =31,433  km/h

65  Erik Zabel  Milram06h 40' 12"+  00:33:47 =30,960  km/h

66  Bernhard Eisel  Francaise Des Jeux06h 40' 12"+  00:33:47 =30,960  km/h

67  Sebastian Lang  Gerolsteiner06h 40' 12"+  00:33:47 =30,960  km/h

68  Thomas Löfkvist  Francaise Des Jeux06h 40' 12"+  00:33:47 =30,960  km/h

69  Francisco Ventoso  Saunier Duval-Prodir06h 40' 12"+  00:33:47 =30,960  km/h

70  Jérôme Pineau  Bouygues Telecom06h 40' 12"+  00:33:47 =30,960  km/h

71  Jens Voigt  CSC06h 40' 12"+  00:33:47 =30,960  km/h

72  Kjell Carlström  Liquigas06h 40' 12"+  00:33:47 =30,960  km/h

73  Juan Manuel Garate  Quick Step-Innergetic06h 40' 12"+  00:33:47 =30,960  km/h

74  Philippe Gilbert  Francaise Des Jeux06h 40' 12"+  00:33:47 =30,960  km/h

75  Didier Rous  Bouygues Telecom06h 40' 12"+  00:33:47 =30,960  km/h

76  Sylvain Chavanel  Cofidis Credit Par Telephone06h 40' 12"+  00:33:47 =30,960  km/h

77  Bert Grabsch  Phonak Hearing Systems06h 40' 12"+  00:33:47 =30,960  km/h

78  Thomas  Voeckler  Bouygues Telecom06h 40' 12"+  00:33:47 =30,960  km/h

79  Anthony Charteau  Credit Agricole06h 40' 12"+  00:33:47 =30,960  km/h

80  Eddy Mazzoleni  T-Mobile06h 40' 12"+  00:33:47 =30,960  km/h

81  Manuel Calvente  Agritubel06h 40' 12"+  00:33:47 =30,960  km/h

82  Christian Knees  Milram06h 40' 12"+  00:33:47 =30,960  km/h

83  Eduardo Gonzalo  Agritubel06h 40' 12"+  00:33:47 =30,960  km/h

84  David Cañada  Saunier Duval-Prodir06h 40' 12"+  00:33:47 =30,960  km/h

85  Joost Posthuma  Rabobank06h 40' 12"+  00:33:47 =30,960  km/h

86  Serhiy Honchar  T-Mobile06h 40' 12"+  00:33:47 =30,960  km/h

87  Gorka Verdugo  Euskaltel-Euskadi06h 40' 12"+  00:33:47 =30,960  km/h

88  Salvatore Commesso  Lampre-Fondital06h 40' 12"+  00:33:47 =30,960  km/h

89  Alessandro Ballan  Lampre-Fondital06h 40' 12"+  00:33:47 =30,960  km/h

90  Iñaki Isasi  Euskaltel-Euskadi06h 40' 12"+  00:33:47 =30,960  km/h

91  David Millar  Saunier Duval-Prodir06h 42' 12"+  00:35:47 =30,806  km/h

92  Björn Schröder  Milram06h 42' 12"+  00:35:47 =30,806  km/h

93  Christophe Le Mevel  Credit Agricole06h 42' 12"+  00:35:47 =30,806  km/h

94  Ralf Grabsch  Milram06h 42' 12"+  00:35:47 =30,806  km/h

95  Beat Zberg  Gerolsteiner06h 42' 12"+  00:35:47 =30,806  km/h

96  Sandy Casar  Francaise Des Jeux06h 42' 12"+  00:35:47 =30,806  km/h

97  Benoit Vaugrenard  Francaise Des Jeux06h 42' 12"+  00:35:47 =30,806  km/h

98  Robert Hunter  Phonak Hearing Systems06h 42' 12"+  00:35:47 =30,806  km/h

99  Bram de Groot  Rabobank06h 42' 12"+  00:35:47 =30,806  km/h

100  Florent Brard  Illes Balears-Caisse d Epargne06h 42' 12"+  00:35:47 =30,806  km/h

101  Pavel Padrnos  Discovery Channel06h 42' 12"+  00:35:47 =30,806  km/h

102  Viatcheslav Ekimov  Discovery Channel06h 42' 12"+  00:35:47 =30,806  km/h

103  Michael Albasini  Liquigas06h 42' 12"+  00:35:47 =30,806  km/h

104  Benjamin Noval  Discovery Channel06h 42' 12"+  00:35:47 =30,806  km/h

105  Anthony Geslin  Bouygues Telecom06h 42' 12"+  00:35:47 =30,806  km/h

106  Rik Verbrugghe  Cofidis Credit Par Telephone06h 42' 12"+  00:35:47 =30,806  km/h

107  Sébastien Joly  Francaise Des Jeux06h 42' 12"+  00:35:47 =30,806  km/h

108  Aitor Hernández  Euskaltel-Euskadi06h 42' 12"+  00:35:47 =30,806  km/h

109  Filippo Pozzato  Quick Step-Innergetic06h 46' 57"+  00:40:32 =30,446  km/h

110  Mikel Astarloza  AG2R-Decathlon06h 46' 57"+  00:40:32 =30,446  km/h

111  José Rujano  Quick Step-Innergetic06h 46' 57"+  00:40:32 =30,446  km/h

112  Bradley Wiggins  Cofidis Credit Par Telephone06h 46' 57"+  00:40:32 =30,446  km/h

113  David Lopez  Euskaltel-Euskadi06h 46' 57"+  00:40:32 =30,446  km/h

114  Paolo Tiralongo  Lampre-Fondital06h 46' 57"+  00:40:32 =30,446  km/h

115  Jimmy Casper  Cofidis Credit Par Telephone06h 46' 57"+  00:40:32 =30,446  km/h

116  Marco Velo  Milram06h 46' 57"+  00:40:32 =30,446  km/h

117  David Zabriskie  CSC06h 46' 57"+  00:40:32 =30,446  km/h

118  Sébastien Hinault  Credit Agricole06h 46' 57"+  00:40:32 =30,446  km/h

119  Gustav-Erik Larsson  Francaise Des Jeux06h 46' 57"+  00:40:32 =30,446  km/h

120  Tom Boonen  Quick Step-Innergetic06h 46' 57"+  00:40:32 =30,446  km/h

121  Daniele Bennati  Lampre-Fondital06h 46' 57"+  00:40:32 =30,446  km/h

122  Walter Bénéteau  Bouygues Telecom06h 46' 57"+  00:40:32 =30,446  km/h

123  Bram Tankink  Quick Step-Innergetic06h 46' 57"+  00:40:32 =30,446  km/h

124  Julian Dean  Credit Agricole06h 46' 57"+  00:40:32 =30,446  km/h

125  Daniele Righi  Lampre-Fondital06h 46' 57"+  00:40:32 =30,446  km/h

126  Pieter Weening  Rabobank06h 46' 57"+  00:40:32 =30,446  km/h

127  Maxim Iglinskiy  Milram06h 46' 57"+  00:40:32 =30,446  km/h

128  Victor Hugo Peña  Phonak Hearing Systems06h 46' 57"+  00:40:32 =30,446  km/h

129  David Kopp  Gerolsteiner06h 50' 45"+  00:44:20 =30,164  km/h

130  Stuart O'Grady  CSC06h 50' 45"+  00:44:20 =30,164  km/h

131  José Alberto Martinez  Agritubel06h 50' 45"+  00:44:20 =30,164  km/h

132  Steven de Jongh  Quick Step-Innergetic06h 50' 45"+  00:44:20 =30,164  km/h

133  Cédric Vasseur  Quick Step-Innergetic06h 50' 45"+  00:44:20 =30,164  km/h

134  Ronny Scholz  Gerolsteiner06h 50' 45"+  00:44:20 =30,164  km/h

135  Johan Vansummeren  Davitamon-Lotto06h 50' 45"+  00:44:20 =30,164  km/h

136  Stéphane Auge  Cofidis Credit Par Telephone06h 50' 45"+  00:44:20 =30,164  km/h

137  Robbie McEwen  Davitamon-Lotto06h 50' 45"+  00:44:20 =30,164  km/h

138  Peter Wrolich  Gerolsteiner06h 50' 45"+  00:44:20 =30,164  km/h

139  Matteo Tosatto  Quick Step-Innergetic06h 50' 45"+  00:44:20 =30,164  km/h

140  Magnus Bäckstedt  Liquigas06h 50' 45"+  00:44:20 =30,164  km/h

141  Manuel Quinziato  Liquigas06h 50' 45"+  00:44:20 =30,164  km/h

142  Mario Aerts  Davitamon-Lotto06h 50' 45"+  00:44:20 =30,164  km/h

143  Riccardo Riccò  Saunier Duval-Prodir06h 50' 45"+  00:44:20 =30,164  km/h

144  Matej Mugerli  Liquigas06h 50' 45"+  00:44:20 =30,164  km/h

145  Samuel Dumoulin  AG2R-Decathlon06h 50' 45"+  00:44:20 =30,164  km/h

146  Nicolas Jalabert  Phonak Hearing Systems06h 50' 45"+  00:44:20 =30,164  km/h

147  Wim Vansevenant  Davitamon-Lotto06h 50' 45"+  00:44:20 =30,164  km/h

148  José-Luis Rubiera  Discovery Channel06h 50' 45"+  00:44:20 =30,164  km/h

149  Andriy Grivko  Milram06h 50' 45"+  00:44:20 =30,164  km/h

150  Luca Paolini  Liquigas06h 50' 45"+  00:44:20 =30,164  km/h

151  Christophe Laurent  Agritubel06h 50' 45"+  00:44:20 =30,164  km/h

152  Óscar Freire  Rabobank06h 50' 45"+  00:44:20 =30,164  km/h

153  Cédric Coutouly  Agritubel06h 50' 45"+  00:44:20 =30,164  km/h

154  Christopher Horner  Davitamon-Lotto06h 50' 45"+  00:44:20 =30,164  km/h

155  Nicolas Portal  Illes Balears-Caisse d Epargne06h 50' 45"+  00:44:20 =30,164  km/h

156  Samuel Plouhinec  Agritubel06h 50' 45"+  00:44:20 =30,164  km/h

157  Patrick Calcagni  Liquigas06h 50' 45"+  00:44:20 =30,164  km/h

158  Arnaud Coyot  Cofidis Credit Par Telephone06h 50' 45"+  00:44:20 =30,164  km/h

159  José Garcia Acosta  Illes Balears-Caisse d Epargne06h 50' 45"+  00:44:20 =30,164  km/h

160  Gert Steegmans  Davitamon-Lotto06h 50' 45"+  00:44:20 =30,164  km/h

161  Isaac Gálvez  Illes Balears-Caisse d Epargne06h 50' 45"+  00:44:20 =30,164  km/h

162  Unai Etxebarria  Euskaltel-Euskadi06h 50' 45"+  00:44:20 =30,164  km/h

163  Thor Hushovd  Credit Agricole06h 50' 45"+  00:44:20 =30,164  km/h

164  Alexandre Moos  Phonak Hearing Systems06h 50' 45"+  00:44:20 =30,164  km/h

165  Christophe Mengin  Francaise Des Jeux06h 52' 38"+  00:46:13 =30,027  km/h


Withdrawls: 3
 RiderTeamReason
12   Giovanni Lombardi CSCDid not finish
102   Wilfried Cretskens Quick Step-InnergeticDid not finish
121   Iban Mayo Euskaltel-EuskadiDid not finish
Todays birthdays.

1869 • Adolphe Dorion
1884 • Achille Germain
1886 • Emile Eigeldinger
1896 • Andre Léger
1907 • Frans Dictus
1921 • Alberto Ghirardi
1934 • Joseph Planckaert
1945 • Leif Mortensen
1952 • Alex Van Linden
1960 • Roberto Bressan
1960 • Bernard Chesneau
1962 • Paul Watson
1963 • Juan Rozas
1965 • Jean-Pierre Heynderickx
1967 • José-Manuel Oliveira
1970 • Wilfried Nelissen
1980 • Nick Nuyens
1996 • Jai Hindley

 

Optimized for Chrome - Edge
and Opera browsers.